createdAt,value
2023-08-05T00:00:52.366Z,98685.84
2023-08-05T00:03:22.215Z,98673.88
2023-08-05T00:05:50.662Z,98676.66
2023-08-05T00:08:19.153Z,98667.03
2023-08-05T00:10:48.428Z,98673.28
2023-08-05T00:13:16.948Z,98672.47
2023-08-05T00:15:45.887Z,98672.81
2023-08-05T00:18:14.416Z,98670.84
2023-08-05T00:20:44.470Z,98652.47
2023-08-05T00:23:12.963Z,98637.38
2023-08-05T00:25:41.473Z,98627.38
2023-08-05T00:28:09.923Z,98628.53
2023-08-05T00:30:38.442Z,98648.41
2023-08-05T00:33:06.940Z,98648.75
2023-08-05T00:35:35.364Z,98648.75
2023-08-05T00:38:05.307Z,98639.56
2023-08-05T00:40:33.824Z,98629.91
2023-08-05T00:43:03.967Z,98621.53
2023-08-05T00:45:33.191Z,98628.75
2023-08-05T00:48:01.801Z,98620.41
2023-08-05T00:50:33.604Z,98606.78
2023-08-05T00:53:03.122Z,98605.16
2023-08-05T00:55:33.465Z,98595.50
2023-08-05T00:58:02.018Z,98574.34
2023-08-05T01:00:30.554Z,98568.31
2023-08-05T01:02:58.995Z,98545.53
2023-08-05T01:05:27.869Z,98557.88
2023-08-05T01:07:57.560Z,98570.19
2023-08-05T01:10:26.010Z,98585.75
2023-08-05T01:12:56.024Z,98605.38
2023-08-05T01:15:24.706Z,98607.13
2023-08-05T01:17:57.213Z,98586.94
2023-08-05T01:20:32.973Z,98575.88
2023-08-05T01:23:09.412Z,98575.53
2023-08-05T01:25:40.229Z,98561.69
2023-08-05T01:28:11.023Z,98564.97
2023-08-05T01:30:42.337Z,98561.84
2023-08-05T01:33:12.138Z,98552.28
2023-08-05T01:35:40.643Z,98543.56
2023-08-05T01:38:09.123Z,98517.31
2023-08-05T01:40:39.007Z,98494.16
2023-08-05T01:43:08.807Z,98495.34
2023-08-05T01:45:37.492Z,98497.31
2023-08-05T01:48:06.867Z,98493.00
2023-08-05T01:50:36.392Z,98495.81
2023-08-05T01:53:04.898Z,98506.59
2023-08-05T01:55:33.395Z,98507.88
2023-08-05T01:58:03.230Z,98516.34
2023-08-05T02:00:31.955Z,98518.44
2023-08-05T02:03:00.498Z,98526.13
2023-08-05T02:05:29.345Z,98534.25
2023-08-05T02:07:57.782Z,98539.25
2023-08-05T02:10:26.269Z,98547.03
2023-08-05T02:12:54.815Z,98535.63
2023-08-05T02:15:24.777Z,98512.56
2023-08-05T02:17:53.328Z,98495.81
2023-08-05T02:20:22.030Z,98492.56
2023-08-05T02:22:50.547Z,98503.66
2023-08-05T02:25:19.158Z,98495.97
2023-08-05T02:27:49.976Z,98480.72
2023-08-05T02:30:19.339Z,98475.06
2023-08-05T02:32:49.313Z,98456.59
2023-08-05T02:35:18.090Z,98456.47
2023-08-05T02:37:46.598Z,98454.72
2023-08-05T02:40:15.669Z,98454.28
2023-08-05T02:42:47.116Z,98455.34
2023-08-05T02:45:15.797Z,98450.00
2023-08-05T02:47:44.295Z,98453.16
2023-08-05T02:50:14.192Z,98458.97
2023-08-05T02:52:42.765Z,98455.72
2023-08-05T02:55:11.314Z,98461.97
2023-08-05T02:57:39.828Z,98456.75
2023-08-05T03:00:10.754Z,98456.75
2023-08-05T03:02:39.383Z,98456.41
2023-08-05T03:05:09.087Z,98452.91
2023-08-05T03:07:38.910Z,98445.84
2023-08-05T03:10:09.211Z,98449.06
2023-08-05T03:12:37.820Z,98443.97
2023-08-05T03:15:08.177Z,98431.66
2023-08-05T03:17:37.757Z,98434.75
2023-08-05T03:20:08.585Z,98431.97
2023-08-05T03:22:38.467Z,98437.56
2023-08-05T03:25:08.613Z,98447.56
2023-08-05T03:27:37.235Z,98446.41
2023-08-05T03:30:07.493Z,98454.41
2023-08-05T03:32:36.051Z,98454.88
2023-08-05T03:35:05.031Z,98442.09
2023-08-05T03:37:33.554Z,98445.34
2023-08-05T03:40:03.576Z,98444.16
2023-08-05T03:42:32.076Z,98433.13
2023-08-05T03:45:00.965Z,98423.59
2023-08-05T03:47:29.846Z,98433.22
2023-08-05T03:49:58.670Z,98432.53
2023-08-05T03:52:29.045Z,98419.03
2023-08-05T03:54:57.603Z,98413.53
2023-08-05T03:57:27.475Z,98419.59
2023-08-05T03:59:56.410Z,98412.16
2023-08-05T04:02:24.987Z,98403.03
2023-08-05T04:04:53.427Z,98401.06
2023-08-05T04:07:24.046Z,98395.94
2023-08-05T04:09:54.583Z,98380.84
2023-08-05T04:12:23.097Z,98377.69
2023-08-05T04:14:53.444Z,98376.06
2023-08-05T04:17:23.021Z,98376.53
2023-08-05T04:19:51.684Z,98363.38
2023-08-05T04:22:22.611Z,98362.66
2023-08-05T04:24:51.595Z,98359.53
2023-08-05T04:27:20.182Z,98354.03
2023-08-05T04:29:48.655Z,98342.19
2023-08-05T04:32:18.604Z,98348.22
2023-08-05T04:34:47.624Z,98361.81
2023-08-05T04:37:20.681Z,98374.16
2023-08-05T04:39:50.058Z,98388.56
2023-08-05T04:42:19.504Z,98404.97
2023-08-05T04:44:48.033Z,98413.34
2023-08-05T04:47:17.869Z,98411.81
2023-08-05T04:49:47.030Z,98427.88
2023-08-05T04:52:15.930Z,98432.25
2023-08-05T04:54:46.278Z,98438.59
2023-08-05T04:57:15.293Z,98451.28
2023-08-05T04:59:43.776Z,98457.47
2023-08-05T05:02:12.355Z,98456.03
2023-08-05T05:04:42.221Z,98457.81
2023-08-05T05:07:10.739Z,98442.84
2023-08-05T05:09:39.326Z,98441.00
2023-08-05T05:12:08.753Z,98437.53
2023-08-05T05:14:37.371Z,98440.09
2023-08-05T05:17:06.246Z,98435.13
2023-08-05T05:19:34.696Z,98414.56
2023-08-05T05:22:04.693Z,98402.84
2023-08-05T05:24:33.253Z,98394.72
2023-08-05T05:27:01.860Z,98377.09
2023-08-05T05:29:31.816Z,98370.53
2023-08-05T05:32:00.348Z,98368.09
2023-08-05T05:34:28.896Z,98379.16
2023-08-05T05:36:57.357Z,98365.56
2023-08-05T05:39:27.362Z,98349.19
2023-08-05T05:41:56.282Z,98365.09
2023-08-05T05:44:24.983Z,98368.25
2023-08-05T05:46:53.614Z,98367.06
2023-08-05T05:49:22.413Z,98361.50
2023-08-05T05:51:50.959Z,98366.72
2023-08-05T05:54:19.501Z,98386.25
2023-08-05T05:56:49.541Z,98389.84
2023-08-05T05:59:18.304Z,98412.63
2023-08-05T06:01:46.753Z,98413.06
2023-08-05T06:04:15.386Z,98420.72
2023-08-05T06:06:43.996Z,98426.00
2023-08-05T06:09:12.565Z,98427.75
2023-08-05T06:11:41.089Z,98403.56
2023-08-05T06:14:11.003Z,98387.63
2023-08-05T06:16:39.512Z,98373.34
2023-08-05T06:19:08.376Z,98379.03
2023-08-05T06:21:36.888Z,98376.69
2023-08-05T06:24:05.764Z,98372.03
2023-08-05T06:26:34.906Z,98381.22
2023-08-05T06:29:03.390Z,98381.69
2023-08-05T06:31:33.373Z,98380.84
2023-08-05T06:34:01.869Z,98371.66
2023-08-05T06:36:30.333Z,98374.47
2023-08-05T06:38:58.961Z,98372.84
2023-08-05T06:41:27.434Z,98372.03
2023-08-05T06:43:56.030Z,98384.00
2023-08-05T06:46:24.602Z,98383.19
2023-08-05T06:48:54.522Z,98380.41
2023-08-05T06:51:23.078Z,98372.84
2023-08-05T06:53:51.627Z,98366.81
2023-08-05T06:56:20.132Z,98362.03
2023-08-05T06:58:49.203Z,98356.44
2023-08-05T07:01:18.101Z,98357.63
2023-08-05T07:03:46.622Z,98357.63
2023-08-05T07:06:16.520Z,98370.75
2023-08-05T07:08:45.058Z,98383.09
2023-08-05T07:11:13.553Z,98379.50
2023-08-05T07:13:42.061Z,98373.47
2023-08-05T07:16:10.573Z,98367.50
2023-08-05T07:18:39.088Z,98365.63
2023-08-05T07:21:07.546Z,98371.44
2023-08-05T07:23:37.410Z,98374.34
2023-08-05T07:26:05.928Z,98370.81
2023-08-05T07:28:34.489Z,98353.03
2023-08-05T07:31:08.384Z,98345.47
2023-08-05T07:33:37.115Z,98330.44
2023-08-05T07:36:13.009Z,98326.97
2023-08-05T07:38:44.948Z,98346.31
2023-08-05T07:41:14.920Z,98349.69
2023-08-05T07:43:43.810Z,98352.69
2023-08-05T07:46:15.092Z,98346.03
2023-08-05T07:48:47.072Z,98342.63
2023-08-05T07:51:15.771Z,98335.59
2023-08-05T07:53:45.623Z,98335.72
2023-08-05T07:56:15.151Z,98339.84
2023-08-05T07:58:47.341Z,98345.19
2023-08-05T08:01:21.031Z,98340.06
2023-08-05T08:03:52.493Z,98338.97
2023-08-05T08:06:22.625Z,98336.63
2023-08-05T08:08:52.929Z,98331.16
2023-08-05T08:11:21.653Z,98346.72
2023-08-05T08:13:50.138Z,98346.72
2023-08-05T08:16:19.676Z,98339.97
2023-08-05T08:18:48.195Z,98344.03
2023-08-05T08:21:16.692Z,98336.53
2023-08-05T08:23:45.207Z,98345.00
2023-08-05T08:26:15.015Z,98341.41
2023-08-05T08:28:43.512Z,98342.69
2023-08-05T08:31:12.051Z,98348.78
2023-08-05T08:33:40.557Z,98349.69
2023-08-05T08:36:09.161Z,98347.81
2023-08-05T08:38:37.624Z,98349.06
2023-08-05T08:41:06.098Z,98348.25
2023-08-05T08:43:36.880Z,98351.41
2023-08-05T08:46:08.940Z,98349.78
2023-08-05T08:48:38.570Z,98350.16
2023-08-05T08:51:08.051Z,98359.25
2023-08-05T08:53:37.057Z,98361.22
2023-08-05T08:56:06.022Z,98361.59
2023-08-05T08:58:36.568Z,98361.94
2023-08-05T09:01:07.111Z,98358.38
2023-08-05T09:03:37.115Z,98366.75
2023-08-05T09:06:06.084Z,98372.69
2023-08-05T09:08:36.577Z,98363.41
2023-08-05T09:11:05.427Z,98364.84
2023-08-05T09:13:35.274Z,98367.78
2023-08-05T09:16:03.980Z,98365.63
2023-08-05T09:18:33.363Z,98357.88
2023-08-05T09:21:03.235Z,98366.97
2023-08-05T09:23:31.885Z,98371.28
2023-08-05T09:26:00.375Z,98358.06
2023-08-05T09:28:33.066Z,98360.75
2023-08-05T09:31:19.101Z,98370.19
2023-08-05T09:33:47.601Z,98381.03
2023-08-05T09:36:17.109Z,98370.09
2023-08-05T09:38:47.275Z,98362.41
2023-08-05T09:41:16.109Z,98355.09
2023-08-05T09:43:46.845Z,98352.22
2023-08-05T09:46:19.823Z,98352.94
2023-08-05T09:48:48.664Z,98361.66
2023-08-05T09:51:18.706Z,98377.13
2023-08-05T09:53:53.347Z,98381.91
2023-08-05T09:56:22.503Z,98393.16
2023-08-05T09:58:52.173Z,98368.50
2023-08-05T10:01:22.749Z,98349.78
2023-08-05T10:03:51.870Z,98358.06
2023-08-05T10:06:21.546Z,98360.66
2023-08-05T10:08:50.545Z,98376.00
2023-08-05T10:11:20.510Z,98370.78
2023-08-05T10:13:53.845Z,98379.97
2023-08-05T10:16:24.692Z,98374.41
2023-08-05T10:18:53.739Z,98355.56
2023-08-05T10:21:46.660Z,98364.53
2023-08-05T10:24:15.180Z,98357.69
2023-08-05T10:26:47.828Z,98345.50
2023-08-05T10:29:29.638Z,98315.44
2023-08-05T10:32:17.594Z,98311.72
2023-08-05T10:35:06.240Z,98295.47
2023-08-05T10:37:50.345Z,98296.28
2023-08-05T10:40:40.376Z,98301.16
2023-08-05T10:43:10.068Z,98295.41
2023-08-05T10:45:45.009Z,98289.47
2023-08-05T10:48:15.785Z,98285.97
2023-08-05T10:50:44.316Z,98275.63
2023-08-05T10:53:14.780Z,98278.88
2023-08-05T10:55:50.958Z,98294.78
2023-08-05T10:58:25.800Z,98303.16
2023-08-05T11:01:02.626Z,98304.69
2023-08-05T11:03:43.595Z,98335.38
2023-08-05T11:06:13.565Z,98352.22
2023-08-05T11:08:43.631Z,98371.41
2023-08-05T11:11:15.300Z,98355.09
2023-08-05T11:13:45.829Z,98304.06
2023-08-05T11:16:15.914Z,98247.38
2023-08-05T11:18:47.664Z,98224.16
2023-08-05T11:21:19.059Z,98256.81
2023-08-05T11:23:47.755Z,98275.06
2023-08-05T11:26:16.542Z,98280.19
2023-08-05T11:28:46.293Z,98258.25
2023-08-05T11:31:24.529Z,98245.44
2023-08-05T11:33:55.397Z,98243.94
2023-08-05T11:36:27.566Z,98256.25
2023-08-05T11:38:59.154Z,98247.88
2023-08-05T11:41:29.006Z,98255.34
2023-08-05T11:43:57.872Z,98260.84
2023-08-05T11:46:27.386Z,98281.06
2023-08-05T11:49:11.654Z,98329.53
2023-08-05T11:51:51.796Z,98392.03
2023-08-05T11:54:29.671Z,98396.81
2023-08-05T11:56:58.980Z,98362.19
2023-08-05T11:59:41.889Z,98332.94
2023-08-05T12:02:11.396Z,98334.91
2023-08-05T12:04:49.017Z,98353.59
2023-08-05T12:07:19.613Z,98376.03
2023-08-05T12:10:03.670Z,98383.34
2023-08-05T12:12:32.254Z,98394.59
2023-08-05T12:15:14.454Z,98400.16
2023-08-05T12:17:49.473Z,98393.53
2023-08-05T12:20:21.507Z,98376.19
2023-08-05T12:22:52.604Z,98360.72
2023-08-05T12:25:23.672Z,98337.63
2023-08-05T12:27:52.173Z,98327.97
2023-08-05T12:30:21.396Z,98314.03
2023-08-05T12:32:50.012Z,98334.84
2023-08-05T12:35:20.026Z,98341.56
2023-08-05T12:37:48.604Z,98344.81
2023-08-05T12:40:17.139Z,98349.56
2023-08-05T12:42:45.593Z,98345.63
2023-08-05T12:45:14.185Z,98335.63
2023-08-05T12:47:42.758Z,98324.81
2023-08-05T12:50:12.182Z,98327.97
2023-08-05T12:52:42.042Z,98312.41
2023-08-05T12:55:11.296Z,98324.38
2023-08-05T12:57:39.934Z,98341.09
2023-08-05T13:00:11.674Z,98350.19
2023-08-05T13:02:40.130Z,98353.78
2023-08-05T13:05:09.530Z,98345.41
2023-08-05T13:07:38.016Z,98334.63
2023-08-05T13:10:09.646Z,98326.72
2023-08-05T13:12:38.703Z,98331.31
2023-08-05T13:15:09.052Z,98330.25
2023-08-05T13:17:37.494Z,98332.34
2023-08-05T13:20:08.088Z,98345.47
2023-08-05T13:22:36.584Z,98359.16
2023-08-05T13:25:05.518Z,98346.84
2023-08-05T13:27:35.607Z,98353.22
2023-08-05T13:30:04.108Z,98336.47
2023-08-05T13:32:32.683Z,98339.28
2023-08-05T13:35:01.200Z,98332.09
2023-08-05T13:37:29.679Z,98328.03
2023-08-05T13:39:58.371Z,98322.31
2023-08-05T13:42:26.969Z,98327.44
2023-08-05T13:44:57.158Z,98339.81
2023-08-05T13:47:25.948Z,98339.44
2023-08-05T13:49:55.290Z,98357.81
2023-08-05T13:52:24.434Z,98354.19
2023-08-05T13:54:53.279Z,98345.84
2023-08-05T13:57:22.067Z,98331.06
2023-08-05T13:59:50.657Z,98315.59
2023-08-05T14:02:20.850Z,98321.75
2023-08-05T14:04:49.739Z,98321.00
2023-08-05T14:07:18.186Z,98327.03
2023-08-05T14:09:46.814Z,98324.38
2023-08-05T14:12:15.248Z,98295.75
2023-08-05T14:14:43.747Z,98292.97
2023-08-05T14:17:12.189Z,98288.63
2023-08-05T14:19:42.088Z,98274.31
2023-08-05T14:22:10.547Z,98272.00
2023-08-05T14:24:39.026Z,98276.38
2023-08-05T14:27:07.884Z,98252.91
2023-08-05T14:29:36.342Z,98270.00
2023-08-05T14:32:05.186Z,98278.38
2023-08-05T14:34:33.865Z,98268.00
2023-08-05T14:37:03.721Z,98279.66
2023-08-05T14:39:32.166Z,98271.28
2023-08-05T14:42:00.748Z,98274.06
2023-08-05T14:44:29.493Z,98288.81
2023-08-05T14:46:57.929Z,98294.06
2023-08-05T14:49:26.441Z,98307.66
2023-08-05T14:51:54.914Z,98322.41
2023-08-05T14:54:24.766Z,98329.59
2023-08-05T14:56:53.218Z,98324.03
2023-08-05T14:59:21.918Z,98325.66
2023-08-05T15:01:50.713Z,98325.66
2023-08-05T15:04:19.509Z,98318.44
2023-08-05T15:06:48.979Z,98328.44
2023-08-05T15:09:17.548Z,98318.09
2023-08-05T15:11:47.341Z,98327.28
2023-08-05T15:14:17.179Z,98318.56
2023-08-05T15:16:45.756Z,98315.75
2023-08-05T15:19:14.210Z,98321.78
2023-08-05T15:21:42.730Z,98314.28
2023-08-05T15:24:11.256Z,98301.13
2023-08-05T15:26:39.751Z,98307.16
2023-08-05T15:29:09.828Z,98306.34
2023-08-05T15:31:38.415Z,98295.63
2023-08-05T15:34:06.954Z,98294.81
2023-08-05T15:36:35.891Z,98306.78
2023-08-05T15:39:04.901Z,98303.56
2023-08-05T15:41:33.504Z,98309.94
2023-08-05T15:44:02.858Z,98319.94
2023-08-05T15:46:33.339Z,98317.88
2023-08-05T15:49:02.729Z,98322.28
2023-08-05T15:51:31.485Z,98296.66
2023-08-05T15:54:00.687Z,98292.75
2023-08-05T15:56:31.352Z,98286.66
2023-08-05T15:59:00.076Z,98282.63
2023-08-05T16:01:29.592Z,98276.56
2023-08-05T16:04:00.386Z,98284.94
2023-08-05T16:06:30.057Z,98295.78
2023-08-05T16:08:59.436Z,98291.34
2023-08-05T16:11:32.409Z,98299.72
2023-08-05T16:14:01.745Z,98302.88
2023-08-05T16:16:32.118Z,98309.63
2023-08-05T16:19:02.761Z,98318.00
2023-08-05T16:21:32.724Z,98318.81
2023-08-05T16:24:02.586Z,98314.88
2023-08-05T16:26:32.102Z,98322.06
2023-08-05T16:29:01.710Z,98328.00
2023-08-05T16:31:31.512Z,98332.78
2023-08-05T16:34:01.787Z,98323.13
2023-08-05T16:36:30.955Z,98319.50
2023-08-05T16:39:01.065Z,98326.28
2023-08-05T16:41:31.259Z,98324.66
2023-08-05T16:44:03.865Z,98317.09
2023-08-05T16:46:46.745Z,98302.69
2023-08-05T16:49:20.192Z,98301.41
2023-08-05T16:51:50.814Z,98295.38
2023-08-05T16:54:20.834Z,98295.75
2023-08-05T16:56:50.282Z,98285.38
2023-08-05T16:59:19.391Z,98279.34
2023-08-05T17:01:50.458Z,98283.78
2023-08-05T17:04:21.331Z,98279.34
2023-08-05T17:06:50.524Z,98273.78
2023-08-05T17:09:22.520Z,98274.47
2023-08-05T17:11:52.134Z,98274.84
2023-08-05T17:14:21.415Z,98269.97
2023-08-05T17:16:51.981Z,98272.31
2023-08-05T17:19:24.136Z,98267.91
2023-08-05T17:21:55.054Z,98268.72
2023-08-05T17:24:23.731Z,98259.16
2023-08-05T17:26:53.316Z,98245.59
2023-08-05T17:29:22.673Z,98257.19
2023-08-05T17:31:52.268Z,98264.75
2023-08-05T17:34:24.232Z,98277.56
2023-08-05T17:36:54.297Z,98260.44
2023-08-05T17:39:25.394Z,98246.03
2023-08-05T17:41:54.447Z,98242.44
2023-08-05T17:44:23.560Z,98241.16
2023-08-05T17:46:53.928Z,98242.69
2023-08-05T17:49:25.497Z,98235.38
2023-08-05T17:51:54.607Z,98229.72
2023-08-05T17:54:23.719Z,98235.19
2023-08-05T17:56:54.142Z,98229.91
2023-08-05T17:59:25.523Z,98234.53
2023-08-05T18:01:54.792Z,98238.41
2023-08-05T18:04:26.896Z,98230.66
2023-08-05T18:06:56.832Z,98235.31
2023-08-05T18:09:27.366Z,98230.44
2023-08-05T18:11:56.810Z,98251.81
2023-08-05T18:14:25.907Z,98258.09
2023-08-05T18:16:55.956Z,98258.00
2023-08-05T18:19:26.823Z,98248.38
2023-08-05T18:21:55.388Z,98249.53
2023-08-05T18:24:24.831Z,98251.03
2023-08-05T18:26:54.326Z,98267.75
2023-08-05T18:29:24.201Z,98258.94
2023-08-05T18:31:53.401Z,98257.34
2023-08-05T18:34:23.092Z,98260.91
2023-08-05T18:36:53.739Z,98267.69
2023-08-05T18:39:24.178Z,98265.72
2023-08-05T18:41:54.864Z,98246.53
2023-08-05T18:44:24.142Z,98248.53
2023-08-05T18:46:52.726Z,98247.25
2023-08-05T18:49:22.016Z,98256.41
2023-08-05T18:51:53.541Z,98264.69
2023-08-05T18:54:23.416Z,98259.47
2023-08-05T18:56:52.318Z,98243.06
2023-08-05T18:59:21.993Z,98239.47
2023-08-05T19:01:52.132Z,98249.81
2023-08-05T19:04:22.402Z,98256.56
2023-08-05T19:06:53.222Z,98249.00
2023-08-05T19:09:21.786Z,98244.94
2023-08-05T19:11:52.047Z,98249.69
2023-08-05T19:14:23.450Z,98238.56
2023-08-05T19:16:52.542Z,98248.88
2023-08-05T19:19:22.063Z,98246.09
2023-08-05T19:21:52.698Z,98249.25
2023-08-05T19:24:22.479Z,98236.50
2023-08-05T19:26:51.736Z,98205.84
2023-08-05T19:29:20.727Z,98186.69
2023-08-05T19:31:51.837Z,98204.56
2023-08-05T19:34:22.414Z,98210.94
2023-08-05T19:36:52.342Z,98204.56
2023-08-05T19:39:22.956Z,98207.69
2023-08-05T19:41:52.305Z,98222.44
2023-08-05T19:44:21.505Z,98243.59
2023-08-05T19:46:52.155Z,98244.38
2023-08-05T19:49:21.177Z,98250.88
2023-08-05T19:51:50.920Z,98249.38
2023-08-05T19:54:21.683Z,98240.66
2023-08-05T19:56:51.589Z,98237.94
2023-08-05T19:59:21.756Z,98236.44
2023-08-05T20:01:51.491Z,98239.69
2023-08-05T20:04:20.292Z,98235.38
2023-08-05T20:06:50.164Z,98240.63
2023-08-05T20:09:20.829Z,98240.63
2023-08-05T20:11:52.980Z,98241.06
2023-08-05T20:14:22.871Z,98227.94
2023-08-05T20:16:52.737Z,98228.41
2023-08-05T20:19:22.191Z,98219.22
2023-08-05T20:21:51.588Z,98220.03
2023-08-05T20:24:21.848Z,98230.00
2023-08-05T20:26:51.486Z,98226.06
2023-08-05T20:29:21.064Z,98219.78
2023-08-05T20:31:52.376Z,98233.00
2023-08-05T20:34:22.814Z,98235.47
2023-08-05T20:36:52.416Z,98230.34
2023-08-05T20:39:23.530Z,98217.53
2023-08-05T20:41:52.676Z,98211.16
2023-08-05T20:44:21.614Z,98202.34
2023-08-05T20:46:50.297Z,98201.53
2023-08-05T20:49:19.130Z,98191.91
2023-08-05T20:51:47.861Z,98191.44
2023-08-05T20:54:16.730Z,98187.88
2023-08-05T20:56:46.868Z,98187.38
2023-08-05T20:59:16.391Z,98186.59
2023-08-05T21:01:45.080Z,98182.53
2023-08-05T21:04:13.594Z,98189.25
2023-08-05T21:06:42.101Z,98195.66
2023-08-05T21:09:10.627Z,98204.84
2023-08-05T21:11:40.060Z,98189.72
2023-08-05T21:14:10.052Z,98194.97
2023-08-05T21:16:38.645Z,98197.00
2023-08-05T21:19:07.192Z,98194.34
2023-08-05T21:21:35.631Z,98188.41
2023-08-05T21:24:04.207Z,98191.63
2023-08-05T21:26:32.701Z,98192.91
2023-08-05T21:29:01.191Z,98183.72
2023-08-05T21:31:31.527Z,98175.06
2023-08-05T21:34:00.006Z,98165.16
2023-08-05T21:36:28.557Z,98158.41
2023-08-05T21:38:57.043Z,98156.44
2023-08-05T21:41:25.604Z,98157.69
2023-08-05T21:43:54.176Z,98157.78
2023-08-05T21:46:22.744Z,98148.25
2023-08-05T21:48:52.556Z,98159.88
2023-08-05T21:51:21.081Z,98155.09
2023-08-05T21:53:49.553Z,98149.53
2023-08-05T21:56:18.148Z,98147.19
2023-08-05T21:58:46.693Z,98144.03
2023-08-05T22:01:15.226Z,98137.31
2023-08-05T22:03:43.906Z,98130.91
2023-08-05T22:06:13.821Z,98133.69
2023-08-05T22:08:42.244Z,98121.38
2023-08-05T22:11:11.767Z,98110.56
2023-08-05T22:13:40.261Z,98104.97
2023-08-05T22:16:09.591Z,98108.59
2023-08-05T22:18:38.269Z,98104.66
2023-08-05T22:21:06.888Z,98101.03
2023-08-05T22:23:36.792Z,98100.22
2023-08-05T22:26:08.701Z,98083.03
2023-08-05T22:28:37.499Z,98082.22
2023-08-05T22:31:06.251Z,98077.03
2023-08-05T22:33:34.915Z,98082.16
2023-08-05T22:36:11.556Z,98076.84
2023-08-05T22:38:41.595Z,98072.06
2023-08-05T22:41:10.057Z,98063.72
2023-08-05T22:43:38.554Z,98061.25
2023-08-05T22:46:07.101Z,98070.81
2023-08-05T22:48:35.723Z,98065.56
2023-08-05T22:51:04.451Z,98055.59
2023-08-05T22:53:32.966Z,98063.53
2023-08-05T22:56:04.985Z,98055.84
2023-08-05T22:58:33.480Z,98060.16
2023-08-05T23:01:03.531Z,98052.16
2023-08-05T23:03:32.414Z,98050.19
2023-08-05T23:06:00.940Z,98059.34
2023-08-05T23:08:29.414Z,98058.56
2023-08-05T23:10:57.892Z,98065.28
2023-08-05T23:13:28.277Z,98069.59
2023-08-05T23:15:56.800Z,98068.00
2023-08-05T23:18:25.303Z,98069.97
2023-08-05T23:20:54.063Z,98067.50
2023-08-05T23:23:22.519Z,98059.16
2023-08-05T23:25:51.035Z,98069.06
2023-08-05T23:28:19.599Z,98065.47
2023-08-05T23:30:49.590Z,98067.00
2023-08-05T23:33:18.083Z,98069.78
2023-08-05T23:35:46.687Z,98066.16
2023-08-05T23:38:15.208Z,98066.16
2023-08-05T23:40:43.811Z,98065.72
2023-08-05T23:43:12.442Z,98064.56
2023-08-05T23:45:44.535Z,98063.38
2023-08-05T23:48:14.500Z,98072.56
2023-08-05T23:50:43.376Z,98060.97
2023-08-05T23:53:12.096Z,98058.50
2023-08-05T23:55:45.948Z,98059.25
2023-08-05T23:58:14.556Z,98052.03
